Time;durP1;ratioP1;P1;durP2;ratioP2;P2;SDS_P1;SDS_P2;PMS_P1;PMS_P2;Temp;Humidity;BMP_temperature;BMP_pressure;BME280_temperature;BME280_humidity;BME280_pressure;Samples;Min_cycle;Max_cycle;Signal;HPM_P1;HPM_P2
2023/02/21 02:14:47;;;;;;;18.77;13.15;;;;;;;18.92;42.97;101983.69;5124908;27;20042;-67
2023/02/21 02:17:58;;;;;;;16.80;12.65;;;;;;;18.91;43.02;101968.78;5106055;27;20427;-67
2023/02/21 02:21:17;;;;;;;18.38;12.40;;;;;;;18.92;42.83;101974.94;5124654;27;20387;-67
2023/02/21 02:24:00;;;;;;;15.52;12.25;;;;;;;18.92;42.89;101964.38;5061397;28;20507;-67
2023/02/21 02:27:02;;;;;;;14.93;11.70;;;;;;;18.89;43.04;101962.75;5061218;28;20089;-67
2023/02/21 02:29:49;;;;;;;17.98;11.98;;;;;;;18.89;42.88;101965.41;5120462;27;20047;-67
2023/02/21 02:32:44;;;;;;;17.20;12.20;;;;;;;18.89;43.04;101967.22;5125095;27;20113;-68
2023/02/21 02:35:20;;;;;;;17.02;12.30;;;;;;;18.84;42.95;101954.31;5125093;27;20050;-67
2023/02/21 02:37:48;;;;;;;17.23;12.30;;;;;;;18.85;42.89;101959.50;5124708;27;20035;-66
2023/02/21 02:40:26;;;;;;;20.60;13.25;;;;;;;18.85;43.01;101951.56;5124463;27;20066;-68
2023/02/21 02:43:01;;;;;;;17.88;12.80;;;;;;;18.81;43.10;101939.47;5124692;27;20531;-69
2023/02/21 02:45:35;;;;;;;18.33;13.05;;;;;;;18.80;42.71;101936.94;5124263;27;20026;-67
2023/02/21 02:48:10;;;;;;;17.48;12.57;;;;;;;18.80;43.17;101943.09;5124776;27;20134;-67
2023/02/21 02:50:37;;;;;;;19.42;12.27;;;;;;;18.81;42.93;101933.34;5106071;27;20042;-67
2023/02/21 02:53:03;;;;;;;17.15;11.85;;;;;;;18.83;43.06;101934.09;5124490;27;20037;-69
2023/02/21 02:55:40;;;;;;;18.65;12.05;;;;;;;18.82;43.08;101938.53;5124538;27;20027;-69
2023/02/21 02:58:09;;;;;;;16.95;12.07;;;;;;;18.81;43.10;101936.81;5124400;27;20031;-69
2023/02/21 03:00:37;;;;;;;17.02;11.77;;;;;;;18.82;43.16;101927.97;5124317;27;20038;-67
2023/02/21 03:03:18;;;;;;;17.88;12.55;;;;;;;18.82;43.01;101929.78;5124267;27;20378;-67
2023/02/21 03:06:01;;;;;;;17.35;12.05;;;;;;;18.83;43.04;101936.72;5124316;27;20034;-67
2023/02/21 03:09:18;;;;;;;16.30;12.35;;;;;;;18.83;42.98;101927.03;5124302;27;20031;-67
2023/02/21 03:12:00;;;;;;;16.02;11.82;;;;;;;18.83;42.93;101934.94;5050920;27;20048;-67
2023/02/21 03:14:32;;;;;;;16.88;12.15;;;;;;;18.82;42.86;101924.50;5124166;27;20087;-66
2023/02/21 03:17:03;;;;;;;20.30;12.75;;;;;;;18.82;43.01;101929.78;5123846;27;20047;-67
2023/02/21 03:19:36;;;;;;;16.67;12.13;;;;;;;18.80;42.91;101921.94;5123739;27;20034;-67
2023/02/21 03:22:07;;;;;;;17.48;12.27;;;;;;;18.81;42.97;101939.47;5123857;27;20559;-66
2023/02/21 03:24:34;;;;;;;19.52;12.98;;;;;;;18.80;43.06;101932.50;5124005;27;20098;-69
2023/02/21 03:27:04;;;;;;;18.55;12.07;;;;;;;18.81;42.90;101931.53;5124154;27;20039;-66
2023/02/21 03:29:31;;;;;;;19.35;12.95;;;;;;;18.79;43.05;101933.44;5123824;27;20483;-68
2023/02/21 03:34:39;;;;;;;18.42;12.63;;;;;;;18.78;42.95;101933.56;5123769;27;20039;-66
2023/02/21 03:37:07;;;;;;;18.13;12.32;;;;;;;18.76;42.61;101927.53;5123574;27;20034;-67
2023/02/21 03:39:32;;;;;;;18.75;12.43;;;;;;;18.76;43.14;101927.53;5123460;27;20039;-68
2023/02/21 03:41:57;;;;;;;16.25;11.50;;;;;;;18.77;42.96;101932.72;5123496;27;20054;-66
2023/02/21 03:44:22;;;;;;;17.23;11.52;;;;;;;18.77;42.83;101929.22;5123750;27;20027;-67
2023/02/21 03:46:48;;;;;;;20.73;12.67;;;;;;;18.77;43.09;101923.94;5123237;27;20037;-67
2023/02/21 03:49:13;;;;;;;19.17;12.10;;;;;;;18.74;42.95;101921.50;5123510;27;20656;-68
2023/02/21 03:51:38;;;;;;;19.58;12.65;;;;;;;18.74;43.07;101924.13;5104792;27;20027;-67
2023/02/21 03:54:03;;;;;;;20.27;13.43;;;;;;;18.76;43.00;101930.19;5123636;27;20434;-68
2023/02/21 03:56:29;;;;;;;18.45;12.52;;;;;;;18.73;42.90;101928.56;5122682;27;20095;-67
2023/02/21 03:58:54;;;;;;;19.47;12.90;;;;;;;18.75;42.73;101936.41;5123419;27;20031;-66
2023/02/21 04:01:19;;;;;;;17.58;11.75;;;;;;;18.66;42.98;101927.31;5122977;27;20802;-66
2023/02/21 04:03:44;;;;;;;20.03;12.77;;;;;;;18.71;42.82;101934.91;5123414;27;20027;-67
2023/02/21 04:06:10;;;;;;;19.20;11.90;;;;;;;18.72;43.06;101932.16;5087348;27;20778;-66
2023/02/21 04:08:35;;;;;;;18.07;11.67;;;;;;;18.71;43.14;101932.25;5104648;27;20594;-67
2023/02/21 04:11:00;;;;;;;17.30;11.70;;;;;;;18.70;43.05;101928.78;5123078;27;20270;-68
2023/02/21 04:13:26;;;;;;;18.45;11.70;;;;;;;18.71;42.84;101933.13;5123240;27;20032;-67
2023/02/21 04:15:51;;;;;;;19.33;12.88;;;;;;;18.71;42.94;101929.63;5122331;27;20059;-67
2023/02/21 04:18:16;;;;;;;18.42;12.13;;;;;;;18.70;42.99;101923.50;5123087;27;20035;-68
2023/02/21 04:20:41;;;;;;;19.92;13.35;;;;;;;18.71;43.04;101929.63;5122785;27;20372;-66
2023/02/21 04:23:07;;;;;;;20.60;12.65;;;;;;;18.70;43.16;101923.50;5123046;27;20110;-68
2023/02/21 04:25:32;;;;;;;18.95;12.00;;;;;;;18.67;43.14;101921.94;5122472;27;20084;-66
2023/02/21 04:27:57;;;;;;;21.10;13.00;;;;;;;18.70;43.00;101922.66;5104396;27;20066;-67
2023/02/21 04:30:23;;;;;;;18.88;12.75;;;;;;;18.70;43.11;101917.38;5122172;27;20039;-67
2023/02/21 04:32:49;;;;;;;17.63;11.98;;;;;;;18.69;43.15;101919.16;5121872;27;20035;-67
2023/02/21 04:35:14;;;;;;;18.60;12.57;;;;;;;18.69;43.06;101913.88;5122595;27;20137;-66
2023/02/21 04:37:40;;;;;;;18.80;12.07;;;;;;;18.63;43.22;101904.59;5122729;27;20035;-68
2023/02/21 04:40:07;;;;;;;17.77;12.35;;;;;;;18.68;42.95;101917.47;5122698;27;20039;-67
2023/02/21 04:42:32;;;;;;;19.38;12.20;;;;;;;18.69;43.00;101911.22;5121977;27;20107;-67
2023/02/21 04:44:57;;;;;;;20.50;12.70;;;;;;;18.68;43.15;101917.47;5122484;27;20055;-66
2023/02/21 04:47:23;;;;;;;19.63;11.57;;;;;;;18.66;42.98;101912.31;5122211;27;20050;-67
2023/02/21 04:49:50;;;;;;;17.05;11.32;;;;;;;18.68;43.04;101912.19;5122293;27;20402;-66
2023/02/21 04:52:19;;;;;;;19.08;12.07;;;;;;;18.60;43.19;101896.03;5121982;27;20182;-67
2023/02/21 04:54:44;;;;;;;23.00;12.80;;;;;;;18.66;43.07;101914.94;5122120;27;20075;-66
2023/02/21 04:57:09;;;;;;;18.75;12.13;;;;;;;18.65;43.12;101905.31;5121735;27;20030;-68
2023/02/21 04:59:35;;;;;;;18.10;12.37;;;;;;;18.63;43.24;101899.31;5121975;27;20038;-66
2023/02/21 05:02:00;;;;;;;20.33;12.05;;;;;;;18.65;42.88;101894.75;5122382;27;20304;-67
2023/02/21 05:04:25;;;;;;;19.37;12.10;;;;;;;18.64;43.15;101897.50;5122209;27;20035;-68
2023/02/21 05:06:51;;;;;;;19.67;11.80;;;;;;;18.60;42.76;101898.66;5122082;27;20287;-67
2023/02/21 05:09:16;;;;;;;16.98;11.85;;;;;;;18.61;42.97;101898.56;5122092;27;20027;-67
2023/02/21 05:11:42;;;;;;;18.17;12.07;;;;;;;18.61;43.12;101909.13;5121882;27;20046;-67
2023/02/21 05:14:07;;;;;;;18.30;12.18;;;;;;;18.63;43.21;101903.75;5121765;27;20039;-68
2023/02/21 05:16:32;;;;;;;18.25;11.60;;;;;;;18.60;43.00;101904.78;5121740;27;20039;-67
2023/02/21 05:18:57;;;;;;;18.70;12.07;;;;;;;18.60;43.08;101904.78;5121994;27;20035;-67
2023/02/21 05:21:23;;;;;;;19.03;11.70;;;;;;;18.59;42.93;101902.25;5121797;27;20382;-68
2023/02/21 05:23:54;;;;;;;19.02;12.05;;;;;;;18.62;43.17;101907.31;5103278;28;20260;-67
2023/02/21 05:26:23;;;;;;;20.88;12.43;;;;;;;18.60;42.98;101910.06;5121722;27;20031;-66
2023/02/21 05:28:49;;;;;;;19.08;11.40;;;;;;;18.61;43.09;101909.13;5119934;27;20023;-67
2023/02/21 05:31:14;;;;;;;19.55;11.90;;;;;;;18.59;43.31;101912.81;5121922;28;20621;-67
2023/02/21 05:33:39;;;;;;;16.17;11.15;;;;;;;18.60;43.21;101903.94;5122039;27;20042;-67
2023/02/21 05:36:05;;;;;;;18.40;11.27;;;;;;;18.57;43.07;101910.28;5121730;27;20023;-67
2023/02/21 05:38:30;;;;;;;18.40;11.05;;;;;;;18.58;43.19;101908.47;5121757;27;20031;-67
2023/02/21 05:40:56;;;;;;;19.17;12.40;;;;;;;18.59;43.12;101913.66;5121414;27;20038;-67
2023/02/21 05:43:22;;;;;;;19.85;11.57;;;;;;;18.58;43.14;101911.97;5123039;27;20459;-68
2023/02/21 05:45:47;;;;;;;18.40;11.30;;;;;;;18.54;43.08;101914.91;5126027;27;20119;-67
2023/02/21 05:48:13;;;;;;;19.40;11.98;;;;;;;18.57;43.17;101922.63;5125696;27;20031;-67
2023/02/21 05:50:39;;;;;;;17.50;11.27;;;;;;;18.55;43.07;101921.88;5125791;27;20482;-67
2023/02/21 05:53:04;;;;;;;18.27;10.70;;;;;;;18.59;43.23;101928.66;5125784;27;20035;-66
2023/02/21 05:55:30;;;;;;;18.35;11.15;;;;;;;18.55;42.91;101917.47;5125564;27;20551;-68
2023/02/21 05:57:55;;;;;;;16.20;11.05;;;;;;;18.57;43.15;101915.56;5125371;27;20031;-66
2023/02/21 06:00:22;;;;;;;17.85;11.38;;;;;;;18.54;43.15;101905.19;5125868;27;20420;-67
2023/02/21 06:02:49;;;;;;;17.42;11.15;;;;;;;18.55;43.02;101922.72;5125303;27;20042;-66
2023/02/21 06:05:15;;;;;;;17.45;10.50;;;;;;;18.53;43.10;101915.84;5125942;27;20030;-66
2023/02/21 06:07:40;;;;;;;17.75;10.57;;;;;;;18.51;43.24;101923.88;5125438;27;20027;-67
2023/02/21 06:10:05;;;;;;;14.70;10.15;;;;;;;18.42;43.30;101901.59;5125285;27;20118;-67
2023/02/21 06:12:30;;;;;;;13.77;8.73;;;;;;;18.51;43.53;101920.41;5124895;27;20196;-67
2023/02/21 06:14:56;;;;;;;15.45;9.80;;;;;;;18.49;43.58;101923.97;5125478;27;20051;-66
2023/02/21 06:17:21;;;;;;;13.50;8.10;;;;;;;18.52;43.63;101922.06;5125248;27;20110;-66
2023/02/21 06:19:46;;;;;;;13.05;8.18;;;;;;;18.55;43.73;101930.66;5125325;27;20039;-68
2023/02/21 06:22:12;;;;;;;14.57;8.52;;;;;;;18.56;43.59;101924.41;5125049;27;20418;-66
2023/02/21 06:24:38;;;;;;;12.23;7.93;;;;;;;18.59;43.58;101923.38;5125129;27;20062;-66
2023/02/21 06:27:03;;;;;;;13.15;8.02;;;;;;;18.63;43.84;101922.22;5124629;27;20027;-67
2023/02/21 06:29:29;;;;;;;14.52;7.82;;;;;;;18.63;43.66;101919.59;5125132;27;20027;-67
2023/02/21 06:31:58;;;;;;;12.73;7.82;;;;;;;18.68;43.88;101922.75;5125142;27;20035;-67
2023/02/21 06:34:24;;;;;;;12.90;7.55;;;;;;;18.70;43.58;101914.75;5124464;27;20395;-67
2023/02/21 06:36:53;;;;;;;13.82;7.70;;;;;;;18.71;43.68;101919.06;5124690;27;20027;-67
2023/02/21 06:39:19;;;;;;;11.98;7.38;;;;;;;18.70;43.63;101914.75;5124667;27;20071;-67
2023/02/21 06:41:44;;;;;;;10.98;6.57;;;;;;;18.78;43.54;101929.09;5124523;27;20126;-67
2023/02/21 06:44:10;;;;;;;12.63;6.97;;;;;;;18.83;43.61;101931.44;5106113;27;20564;-67
2023/02/21 06:46:36;;;;;;;12.52;6.80;;;;;;;18.78;43.36;101912.44;5124638;27;20035;-68
2023/02/21 06:49:03;;;;;;;10.88;6.32;;;;;;;18.88;43.55;101932.00;5124574;27;20084;-67
2023/02/21 06:51:36;;;;;;;11.05;6.45;;;;;;;18.87;43.32;101927.69;5124836;27;20031;-66
2023/02/21 06:54:02;;;;;;;10.68;6.40;;;;;;;18.87;43.45;101919.78;5124548;27;20908;-66
2023/02/21 06:56:28;;;;;;;12.25;6.68;;;;;;;18.91;43.33;101923.88;5123567;27;20027;-67
2023/02/21 06:58:53;;;;;;;9.13;6.10;;;;;;;18.91;43.19;101925.69;5124289;27;20038;-66
2023/02/21 07:01:19;;;;;;;9.80;6.05;;;;;;;18.94;43.53;101925.47;5124575;27;20057;-67
2023/02/21 07:03:46;;;;;;;10.60;5.95;;;;;;;18.95;43.37;101930.66;5105826;27;20031;-66
2023/02/21 07:06:11;;;;;;;10.65;5.65;;;;;;;18.93;43.29;101927.28;5124084;27;20027;-65
2023/02/21 07:08:36;;;;;;;8.88;6.07;;;;;;;18.93;43.49;101927.28;5124248;27;20031;-66
2023/02/21 07:11:02;;;;;;;10.85;6.05;;;;;;;18.96;43.43;101923.56;5124017;27;20031;-67
2023/02/21 07:13:27;;;;;;;9.23;5.80;;;;;;;18.97;43.37;101920.81;5124375;27;20393;-68
2023/02/21 07:15:52;;;;;;;8.98;5.70;;;;;;;18.96;43.38;101927.06;5123979;27;20058;-67
2023/02/21 07:18:18;;;;;;;10.20;6.35;;;;;;;18.99;43.39;101929.50;5124308;27;20142;-69
2023/02/21 07:20:43;;;;;;;9.43;5.80;;;;;;;19.02;43.30;101934.56;5123950;27;20054;-69
2023/02/21 07:23:08;;;;;;;9.18;5.88;;;;;;;19.01;43.49;101926.78;5124568;27;20263;-68
2023/02/21 07:25:34;;;;;;;9.85;6.30;;;;;;;19.03;43.50;101930.16;5123593;27;20042;-68
2023/02/21 07:27:59;;;;;;;10.27;6.63;;;;;;;19.03;43.89;101938.06;5124032;27;20374;-68
2023/02/21 07:30:24;;;;;;;10.53;6.10;;;;;;;19.00;43.94;101925.06;5124057;27;20262;-68
2023/02/21 07:32:50;;;;;;;10.80;6.63;;;;;;;19.03;43.90;101930.16;5123894;27;20263;-67
2023/02/21 07:35:15;;;;;;;9.90;6.05;;;;;;;19.03;44.16;101927.50;5123469;27;20088;-68
2023/02/21 07:37:40;;;;;;;9.57;5.80;;;;;;;19.02;43.98;101928.44;5123750;27;20035;-68
2023/02/21 07:40:06;;;;;;;10.00;5.65;;;;;;;19.04;44.18;101934.44;5123280;27;20061;-67
2023/02/21 07:42:32;;;;;;;10.93;6.20;;;;;;;19.05;44.04;101938.78;5123667;27;20463;-67
2023/02/21 07:44:57;;;;;;;10.32;6.20;;;;;;;19.01;44.08;101935.53;5123499;27;20083;-68
2023/02/21 07:47:24;;;;;;;9.07;5.35;;;;;;;19.04;44.13;101937.09;5123555;27;20564;-67
2023/02/21 07:49:50;;;;;;;9.10;5.75;;;;;;;19.05;44.25;101932.69;5123467;27;20037;-66
2023/02/21 07:52:15;;;;;;;8.88;5.68;;;;;;;19.03;43.96;101936.25;5123364;27;20035;-67
2023/02/21 07:54:41;;;;;;;8.98;5.18;;;;;;;19.02;44.16;101936.38;5123286;27;20076;-68
2023/02/21 07:57:06;;;;;;;8.45;5.30;;;;;;;19.03;44.24;101940.72;5123363;27;20035;-68
2023/02/21 07:59:31;;;;;;;8.05;5.30;;;;;;;19.05;44.46;101938.78;5104480;27;20567;-66
2023/02/21 08:01:57;;;;;;;12.70;6.00;;;;;;;19.04;44.62;101929.16;5123310;27;20035;-69
2023/02/21 08:04:22;;;;;;;8.60;5.40;;;;;;;19.05;44.51;101936.16;5123269;27;20031;-67
2023/02/21 08:06:48;;;;;;;9.93;5.18;;;;;;;19.05;44.38;101930.88;5121696;27;20039;-67
2023/02/21 08:09:13;;;;;;;10.68;5.50;;;;;;;19.05;44.36;101924.75;5123063;27;20115;-68
2023/02/21 08:11:39;;;;;;;8.70;5.07;;;;;;;19.07;44.47;101928.97;5123011;27;20134;-69
2023/02/21 08:14:05;;;;;;;8.95;5.22;;;;;;;19.06;44.54;101943.16;5123465;27;20054;-69
2023/02/21 08:16:30;;;;;;;9.77;4.65;;;;;;;19.05;44.56;101945.88;5060457;27;20047;-70
2023/02/21 08:18:55;;;;;;;9.00;4.78;;;;;;;19.08;44.42;101933.31;5120839;27;20027;-69
2023/02/21 08:21:21;;;;;;;9.43;4.45;;;;;;;19.10;44.35;101927.91;5121805;27;20027;-69
2023/02/21 08:23:46;;;;;;;8.65;4.75;;;;;;;19.10;44.48;101922.63;5121270;27;20396;-68
2023/02/21 08:26:11;;;;;;;9.80;4.80;;;;;;;19.10;44.58;101933.19;5122338;27;20031;-68
2023/02/21 08:28:37;;;;;;;8.95;5.15;;;;;;;19.11;44.33;101943.66;5122410;27;20078;-68
2023/02/21 08:31:02;;;;;;;7.30;4.50;;;;;;;19.08;44.30;101945.69;5122289;27;20118;-68
2023/02/21 08:33:28;;;;;;;11.57;4.78;;;;;;;19.07;44.55;101949.25;5122717;27;20271;-67
2023/02/21 08:35:53;;;;;;;8.60;4.20;;;;;;;19.06;44.72;101934.34;5122671;27;20031;-68
2023/02/21 08:38:19;;;;;;;6.85;4.05;;;;;;;19.07;44.79;101925.50;5122411;27;20555;-69
2023/02/21 08:40:44;;;;;;;8.93;3.85;;;;;;;19.11;44.76;101925.19;5122367;27;20053;-65
2023/02/21 08:43:10;;;;;;;7.38;3.80;;;;;;;19.18;44.46;101926.47;5122334;27;20038;-68
2023/02/21 08:45:36;;;;;;;9.43;3.30;;;;;;;19.17;44.55;101942.41;5122756;27;20031;-68
2023/02/21 08:48:02;;;;;;;7.72;3.40;;;;;;;19.19;44.52;101938.69;5089211;27;20063;-69
2023/02/21 08:50:28;;;;;;;6.43;3.45;;;;;;;19.19;44.43;101925.50;5122816;27;20736;-69
2023/02/21 08:52:54;;;;;;;7.30;3.35;;;;;;;19.23;44.21;101930.56;5122154;27;20073;-69
2023/02/21 08:55:20;;;;;;;7.38;3.80;;;;;;;19.21;44.19;101922.75;5120289;27;20071;-69
2023/02/21 08:57:51;;;;;;;7.90;3.55;;;;;;;19.19;44.21;101922.84;5121271;27;20027;-69
2023/02/21 09:00:18;;;;;;;7.68;3.45;;;;;;;19.17;44.49;101923.91;5121746;27;20035;-68
2023/02/21 09:02:44;;;;;;;6.28;3.78;;;;;;;19.12;44.32;101918.09;5121449;27;20113;-68
2023/02/21 09:05:17;;;;;;;7.32;3.70;;;;;;;19.12;44.72;101918.94;5121651;27;20455;-69
2023/02/21 09:07:43;;;;;;;7.47;3.55;;;;;;;19.13;44.37;101925.91;5121080;27;20074;-70
2023/02/21 09:10:10;;;;;;;8.48;3.55;;;;;;;19.12;44.54;101923.38;5121342;27;20146;-69
2023/02/21 09:12:37;;;;;;;11.23;3.97;;;;;;;19.10;44.65;101915.53;5121575;27;20076;-67
2023/02/21 09:15:03;;;;;;;8.25;3.70;;;;;;;19.08;44.71;101920.09;5119293;27;20531;-67
2023/02/21 09:17:32;;;;;;;6.50;3.35;;;;;;;19.19;44.33;101916.72;5121220;27;20027;-67
2023/02/21 09:20:03;;;;;;;6.93;3.42;;;;;;;19.28;44.00;101917.88;5120651;27;20479;-68
2023/02/21 09:22:30;;;;;;;7.30;3.80;;;;;;;19.31;44.02;101913.25;5121451;27;20080;-67
2023/02/21 09:24:56;;;;;;;8.95;3.83;;;;;;;19.31;43.94;101909.72;5120484;27;20429;-68
2023/02/21 09:27:35;;;;;;;6.82;3.53;;;;;;;19.30;43.85;101908.06;5103322;28;20031;-69
2023/02/21 09:30:04;;;;;;;7.03;3.45;;;;;;;19.32;43.71;101906.16;5122029;27;20038;-68
2023/02/21 09:32:29;;;;;;;7.25;4.15;;;;;;;19.33;43.56;101908.69;5121308;27;20538;-67
2023/02/21 09:34:55;;;;;;;6.97;3.38;;;;;;;19.28;43.67;101899.38;5121505;27;20046;-69
2023/02/21 09:37:20;;;;;;;7.03;3.50;;;;;;;19.30;43.52;101900.13;5121773;28;20039;-67
2023/02/21 09:39:45;;;;;;;6.90;4.20;;;;;;;19.28;43.55;101902.88;5121880;27;20035;-67
2023/02/21 09:42:17;;;;;;;6.80;3.50;;;;;;;19.26;43.58;101903.94;5121681;28;20038;-68
2023/02/21 09:44:44;;;;;;;6.45;3.25;;;;;;;19.26;43.62;101906.56;5121748;28;20068;-67
2023/02/21 09:47:16;;;;;;;7.80;3.35;;;;;;;19.24;43.51;101897.91;5121306;27;20027;-68
2023/02/21 09:49:44;;;;;;;6.45;3.33;;;;;;;19.20;43.54;101892.84;5121273;27;20039;-68
2023/02/21 09:52:36;;;;;;;5.78;3.30;;;;;;;19.24;43.58;101900.56;5121449;27;20039;-68
2023/02/21 09:55:25;;;;;;;7.88;3.92;;;;;;;19.23;43.55;101904.97;5117904;27;20340;-68
2023/02/21 09:57:50;;;;;;;7.53;3.47;;;;;;;19.24;43.51;101906.69;5108034;28;20462;-67
2023/02/21 10:00:18;;;;;;;6.82;3.33;;;;;;;19.20;43.59;101905.19;5121131;27;20546;-68
2023/02/21 10:03:02;;;;;;;6.75;3.55;;;;;;;19.20;43.63;101907.81;5121100;28;20080;-68
2023/02/21 10:05:47;;;;;;;6.60;3.47;;;;;;;19.18;43.62;101905.31;5121618;27;20038;-68
2023/02/21 10:08:36;;;;;;;7.43;3.40;;;;;;;19.18;43.60;101909.75;5121505;28;20435;-68
2023/02/21 10:11:39;;;;;;;6.43;3.80;;;;;;;19.17;43.55;101911.53;5121771;27;20043;-69
2023/02/21 10:14:17;;;;;;;7.63;3.65;;;;;;;19.17;43.58;101911.53;5057604;28;20040;-68
2023/02/21 10:16:53;;;;;;;7.93;3.38;;;;;;;19.15;43.39;101921.38;5057661;28;20076;-68
2023/02/21 10:19:33;;;;;;;6.53;3.42;;;;;;;19.12;43.62;101916.31;5071835;28;20072;-70
2023/02/21 10:22:02;;;;;;;7.47;3.28;;;;;;;19.16;43.55;101919.56;5080893;28;20043;-70
2023/02/21 10:24:27;;;;;;;6.85;3.90;;;;;;;19.13;43.83;101909.22;5080654;28;20147;-69
2023/02/21 10:27:07;;;;;;;6.45;3.28;;;;;;;19.10;43.60;101914.72;5080102;28;20114;-68
2023/02/21 10:29:58;;;;;;;6.57;3.38;;;;;;;19.08;43.57;101911.34;5078737;28;20538;-69
2023/02/21 10:32:24;;;;;;;7.15;3.42;;;;;;;19.12;43.64;101915.44;5084166;28;20024;-69
2023/02/21 10:34:53;;;;;;;6.97;3.58;;;;;;;19.10;43.57;101907.63;5083900;28;20081;-68
2023/02/21 10:37:45;;;;;;;5.82;3.47;;;;;;;19.05;43.76;101911.53;5083907;28;20188;-67
2023/02/21 10:40:34;;;;;;;5.57;3.10;;;;;;;19.03;43.74;101917.75;5083385;28;20044;-68
2023/02/21 10:43:17;;;;;;;5.90;3.30;;;;;;;19.03;43.82;101912.47;5084006;28;20097;-67
2023/02/21 10:46:00;;;;;;;6.90;3.08;;;;;;;19.02;44.05;101907.31;5083959;28;20036;-69
2023/02/21 10:48:33;;;;;;;4.95;2.92;;;;;;;19.02;43.99;101907.31;5083721;28;20464;-68
2023/02/21 10:51:13;;;;;;;6.35;3.42;;;;;;;19.06;43.89;101919.38;5083480;28;20064;-67
2023/02/21 10:53:43;;;;;;;7.63;3.47;;;;;;;19.07;43.92;101922.84;5083895;28;20473;-67
2023/02/21 10:56:17;;;;;;;7.65;3.53;;;;;;;19.10;43.79;101920.00;5083668;28;20070;-68
2023/02/21 10:58:52;;;;;;;6.25;3.40;;;;;;;19.06;43.96;101911.44;5083800;28;20036;-68
2023/02/21 11:01:29;;;;;;;7.22;3.58;;;;;;;19.07;43.98;101907.81;5083380;28;20028;-69
2023/02/21 11:04:20;;;;;;;6.38;3.10;;;;;;;19.08;44.01;101908.69;5083340;28;20035;-68
2023/02/21 11:06:48;;;;;;;6.63;3.70;;;;;;;19.05;43.81;101896.53;5081100;28;20507;-67
2023/02/21 11:09:35;;;;;;;6.07;3.17;;;;;;;19.07;43.80;101894.63;5083234;28;20055;-68
2023/02/21 11:12:16;;;;;;;6.03;3.10;;;;;;;19.09;43.71;101891.88;5083722;28;20044;-67
2023/02/21 11:15:01;;;;;;;7.97;3.60;;;;;;;19.05;43.68;101885.97;5085060;27;20170;-67
2023/02/21 11:17:28;;;;;;;5.78;3.05;;;;;;;19.05;43.92;101883.31;5123993;27;20027;-67
2023/02/21 11:19:56;;;;;;;6.00;3.35;;;;;;;19.04;43.67;101881.63;5106780;27;20479;-68
2023/02/21 11:22:24;;;;;;;6.53;3.30;;;;;;;19.05;43.80;101880.69;5124250;27;20031;-67
2023/02/21 11:25:17;;;;;;;5.95;3.35;;;;;;;19.07;43.92;101884.03;5123840;27;20042;-66
2023/02/21 11:27:44;;;;;;;5.15;2.97;;;;;;;19.07;43.72;101877.94;5124059;27;20043;-67
2023/02/21 11:30:14;;;;;;;6.18;3.33;;;;;;;19.06;43.71;101882.38;5105091;27;20096;-67
2023/02/21 11:32:42;;;;;;;5.22;2.97;;;;;;;19.04;43.91;101873.69;5123779;27;20049;-67
2023/02/21 11:35:29;;;;;;;5.38;3.17;;;;;;;19.00;43.96;101872.22;5124076;27;20039;-68
2023/02/21 11:38:03;;;;;;;5.25;2.97;;;;;;;19.02;43.92;101871.16;5123485;27;20107;-66
2023/02/21 11:40:41;;;;;;;6.90;3.15;;;;;;;19.03;43.95;101864.94;5123796;27;20035;-67
2023/02/21 11:43:09;;;;;;;5.88;3.13;;;;;;;19.06;44.06;101868.31;5123725;27;20030;-68
2023/02/21 11:45:37;;;;;;;6.18;2.97;;;;;;;19.05;43.84;101861.34;5123699;27;20115;-67
2023/02/21 11:48:10;;;;;;;6.70;3.63;;;;;;;19.03;44.02;101861.44;5123424;27;20050;-66
2023/02/21 11:50:45;;;;;;;6.35;3.60;;;;;;;18.97;44.05;101843.38;5104920;27;20811;-67
2023/02/21 11:53:21;;;;;;;6.70;3.53;;;;;;;19.04;44.11;101855.19;5104194;27;20394;-68
2023/02/21 11:56:25;;;;;;;5.82;3.20;;;;;;;19.05;44.23;101853.41;5095681;27;20864;-68
2023/02/21 11:59:02;;;;;;;7.32;3.58;;;;;;;19.05;44.20;101850.78;5081338;27;20789;-70
2023/02/21 12:01:37;;;;;;;6.50;3.08;;;;;;;18.96;44.12;101831.97;5095070;27;20027;-69
2023/02/21 12:04:40;;;;;;;5.95;3.28;;;;;;;19.05;44.27;101848.97;5122222;27;20548;-68
2023/02/21 12:07:28;;;;;;;6.15;3.50;;;;;;;19.05;44.15;101846.31;5104562;27;20382;-69
2023/02/21 12:10:23;;;;;;;7.25;3.08;;;;;;;19.02;44.30;101836.81;5122898;27;20043;-67
2023/02/21 12:13:14;;;;;;;;;;;;;;;19.11;44.25;101840.63;5123406;27;20437;-68
2023/02/21 12:16:03;;;;;;;7.10;3.13;;;;;;;19.12;44.44;101838.81;5123129;27;20022;-67
2023/02/21 12:18:28;;;;;;;6.70;3.45;;;;;;;19.10;44.44;101830.16;5083592;27;20051;-67
2023/02/21 12:21:03;;;;;;;8.17;3.90;;;;;;;19.10;44.14;101838.09;5122887;27;20023;-70
2023/02/21 12:23:58;;;;;;;7.28;3.40;;;;;;;19.01;44.56;101835.13;5122966;27;21106;-68
2023/02/21 12:26:56;;;;;;;6.40;3.13;;;;;;;19.03;44.67;101827.94;5122638;27;20534;-68
2023/02/21 12:30:02;;;;;;;6.00;3.22;;;;;;;19.07;44.73;101839.13;5122468;27;20054;-66
2023/02/21 12:32:55;;;;;;;5.45;2.80;;;;;;;19.08;44.69;101832.06;5122540;27;20034;-67
2023/02/21 12:35:20;;;;;;;5.93;3.25;;;;;;;19.09;44.58;101829.31;5123112;27;20027;-67
2023/02/21 12:38:03;;;;;;;5.65;3.00;;;;;;;19.04;44.48;101818.22;5122609;27;20083;-67
2023/02/21 12:40:37;;;;;;;5.10;2.80;;;;;;;19.08;44.90;101821.50;5122652;27;20031;-67
2023/02/21 12:43:15;;;;;;;5.90;2.95;;;;;;;19.10;44.45;101819.59;5122629;27;20043;-68
2023/02/21 12:46:11;;;;;;;5.30;2.70;;;;;;;19.08;44.68;101817.06;5122743;27;20464;-68
2023/02/21 12:48:44;;;;;;;6.40;3.28;;;;;;;19.07;44.32;101815.34;5101372;27;20154;-68
2023/02/21 12:51:15;;;;;;;5.53;2.67;;;;;;;19.09;44.38;101815.25;5122308;27;20030;-69
2023/02/21 12:53:48;;;;;;;5.32;3.10;;;;;;;19.07;44.26;101812.72;5121992;27;20502;-68
2023/02/21 12:56:26;;;;;;;6.95;2.90;;;;;;;19.02;44.35;101802.47;5122135;27;20502;-67
2023/02/21 12:58:58;;;;;;;5.07;2.78;;;;;;;19.07;44.40;101802.16;5121821;27;20495;-69
2023/02/21 13:01:30;;;;;;;5.32;2.80;;;;;;;19.07;44.27;101804.78;5122160;27;20456;-67
2023/02/21 13:04:19;;;;;;;6.25;2.63;;;;;;;19.09;44.13;101808.19;5122151;27;20394;-69
2023/02/21 13:07:17;;;;;;;5.03;2.58;;;;;;;19.08;44.30;101792.44;5122035;27;20026;-68
2023/02/21 13:09:49;;;;;;;5.53;2.50;;;;;;;19.09;44.13;101794.97;5122211;27;20027;-68
2023/02/21 13:12:22;;;;;;;4.88;2.55;;;;;;;19.06;44.34;101792.56;5121670;27;20154;-68
2023/02/21 13:14:52;;;;;;;5.85;2.97;;;;;;;19.09;43.98;101802.03;5121590;27;20094;-68
2023/02/21 13:17:18;;;;;;;5.80;2.75;;;;;;;19.09;44.07;101797.63;5121857;27;20404;-68
2023/02/21 13:19:56;;;;;;;5.75;2.90;;;;;;;19.10;44.10;101803.75;5122403;27;20598;-68
2023/02/21 13:22:59;;;;;;;5.28;2.63;;;;;;;19.08;44.11;101793.28;5122107;27;20372;-69
2023/02/21 13:25:49;;;;;;;5.47;2.50;;;;;;;19.08;43.87;101798.56;5120460;27;20078;-68
2023/02/21 13:28:19;;;;;;;5.55;3.00;;;;;;;19.07;43.88;101796.88;5121477;28;20050;-68
2023/02/21 13:30:49;;;;;;;6.47;3.13;;;;;;;19.07;43.87;101785.47;5121551;27;20114;-68
2023/02/21 13:33:45;;;;;;;5.85;3.20;;;;;;;19.07;43.80;101781.00;5103148;28;20034;-67
2023/02/21 13:36:20;;;;;;;5.72;2.97;;;;;;;19.06;43.88;101775.84;5119594;28;20054;-68
2023/02/21 13:38:55;;;;;;;4.78;2.50;;;;;;;19.05;43.88;101769.72;5121983;28;20038;-67
2023/02/21 13:41:27;;;;;;;5.28;2.80;;;;;;;19.04;43.84;101778.59;5121286;27;20038;-67
2023/02/21 13:43:54;;;;;;;6.35;3.08;;;;;;;19.01;44.19;101769.09;5121394;27;20031;-67
2023/02/21 13:46:45;;;;;;;5.25;2.70;;;;;;;19.03;44.30;101767.19;5116553;28;20051;-68
2023/02/21 13:49:43;;;;;;;5.55;2.80;;;;;;;19.05;44.20;101761.78;5120359;28;20544;-65
2023/02/21 13:52:23;;;;;;;6.53;3.20;;;;;;;19.06;44.22;101771.41;5120741;28;20391;-67
2023/02/21 13:55:28;;;;;;;5.75;2.53;;;;;;;19.07;44.37;101770.44;5121251;28;20031;-66
2023/02/21 13:57:56;;;;;;;5.60;2.90;;;;;;;19.08;44.26;101772.13;5036543;28;20080;-67